sensor_id;sensor_type;location;lat;lon;timestamp;P1;durP1;ratioP1;P2;durP2;ratioP2
21901;SDS011;11115;46.038;14.612;2023-11-19T00:00:22;5.47;;;2.97;;
21901;SDS011;11115;46.038;14.612;2023-11-19T00:02:50;17.37;;;5.10;;
21901;SDS011;11115;46.038;14.612;2023-11-19T00:05:18;6.63;;;4.30;;
21901;SDS011;11115;46.038;14.612;2023-11-19T00:07:46;14.47;;;4.40;;
21901;SDS011;11115;46.038;14.612;2023-11-19T00:10:15;17.03;;;8.17;;
21901;SDS011;11115;46.038;14.612;2023-11-19T00:12:49;11.95;;;6.20;;
21901;SDS011;11115;46.038;14.612;2023-11-19T00:15:17;15.55;;;6.60;;
21901;SDS011;11115;46.038;14.612;2023-11-19T00:17:47;7.90;;;4.30;;
21901;SDS011;11115;46.038;14.612;2023-11-19T00:20:17;7.93;;;3.90;;
21901;SDS011;11115;46.038;14.612;2023-11-19T00:22:46;6.47;;;4.07;;
21901;SDS011;11115;46.038;14.612;2023-11-19T00:25:17;5.93;;;3.67;;
21901;SDS011;11115;46.038;14.612;2023-11-19T00:27:48;9.30;;;4.25;;
21901;SDS011;11115;46.038;14.612;2023-11-19T00:30:18;6.43;;;4.57;;
21901;SDS011;11115;46.038;14.612;2023-11-19T00:32:46;10.27;;;5.03;;
21901;SDS011;11115;46.038;14.612;2023-11-19T00:35:14;13.37;;;4.47;;
21901;SDS011;11115;46.038;14.612;2023-11-19T00:37:42;11.57;;;5.33;;
21901;SDS011;11115;46.038;14.612;2023-11-19T00:40:12;8.17;;;4.30;;
21901;SDS011;11115;46.038;14.612;2023-11-19T00:42:43;15.00;;;7.10;;
21901;SDS011;11115;46.038;14.612;2023-11-19T00:45:11;8.03;;;3.30;;
21901;SDS011;11115;46.038;14.612;2023-11-19T00:47:40;7.67;;;3.83;;
21901;SDS011;11115;46.038;14.612;2023-11-19T00:50:08;7.63;;;5.07;;
21901;SDS011;11115;46.038;14.612;2023-11-19T00:52:38;5.67;;;3.77;;
21901;SDS011;11115;46.038;14.612;2023-11-19T00:55:06;8.50;;;4.73;;
21901;SDS011;11115;46.038;14.612;2023-11-19T00:57:35;8.07;;;2.90;;
21901;SDS011;11115;46.038;14.612;2023-11-19T01:00:04;7.13;;;3.10;;
21901;SDS011;11115;46.038;14.612;2023-11-19T01:02:41;6.43;;;3.07;;
21901;SDS011;11115;46.038;14.612;2023-11-19T01:05:09;6.37;;;3.00;;
21901;SDS011;11115;46.038;14.612;2023-11-19T01:07:40;7.67;;;3.80;;
21901;SDS011;11115;46.038;14.612;2023-11-19T01:10:09;5.70;;;3.40;;
21901;SDS011;11115;46.038;14.612;2023-11-19T01:12:38;7.17;;;3.43;;
21901;SDS011;11115;46.038;14.612;2023-11-19T01:15:06;7.97;;;3.83;;
21901;SDS011;11115;46.038;14.612;2023-11-19T01:17:34;5.60;;;3.57;;
21901;SDS011;11115;46.038;14.612;2023-11-19T01:20:04;6.77;;;4.20;;
21901;SDS011;11115;46.038;14.612;2023-11-19T01:22:33;12.00;;;3.27;;
21901;SDS011;11115;46.038;14.612;2023-11-19T01:25:02;5.67;;;3.30;;
21901;SDS011;11115;46.038;14.612;2023-11-19T01:27:32;5.53;;;4.53;;
21901;SDS011;11115;46.038;14.612;2023-11-19T01:30:02;14.20;;;4.23;;
21901;SDS011;11115;46.038;14.612;2023-11-19T01:32:30;10.60;;;4.53;;
21901;SDS011;11115;46.038;14.612;2023-11-19T01:34:59;11.07;;;3.67;;
21901;SDS011;11115;46.038;14.612;2023-11-19T01:37:27;5.67;;;3.00;;
21901;SDS011;11115;46.038;14.612;2023-11-19T01:39:55;7.40;;;4.43;;
21901;SDS011;11115;46.038;14.612;2023-11-19T01:42:25;15.20;;;6.13;;
21901;SDS011;11115;46.038;14.612;2023-11-19T01:45:00;5.03;;;3.80;;
21901;SDS011;11115;46.038;14.612;2023-11-19T01:47:29;4.67;;;2.53;;
21901;SDS011;11115;46.038;14.612;2023-11-19T01:49:58;5.40;;;2.93;;
21901;SDS011;11115;46.038;14.612;2023-11-19T01:52:26;5.93;;;3.00;;
21901;SDS011;11115;46.038;14.612;2023-11-19T01:54:55;4.17;;;3.40;;
21901;SDS011;11115;46.038;14.612;2023-11-19T01:57:23;4.20;;;3.23;;
21901;SDS011;11115;46.038;14.612;2023-11-19T01:59:51;6.30;;;3.90;;
21901;SDS011;11115;46.038;14.612;2023-11-19T02:02:20;2.47;;;2.27;;
21901;SDS011;11115;46.038;14.612;2023-11-19T02:04:49;7.70;;;2.17;;
21901;SDS011;11115;46.038;14.612;2023-11-19T02:07:18;5.57;;;2.83;;
21901;SDS011;11115;46.038;14.612;2023-11-19T02:09:47;8.60;;;3.27;;
21901;SDS011;11115;46.038;14.612;2023-11-19T02:12:16;7.73;;;4.70;;
21901;SDS011;11115;46.038;14.612;2023-11-19T02:14:44;7.63;;;3.17;;
21901;SDS011;11115;46.038;14.612;2023-11-19T02:17:25;6.03;;;2.60;;
21901;SDS011;11115;46.038;14.612;2023-11-19T02:19:54;11.27;;;4.83;;
21901;SDS011;11115;46.038;14.612;2023-11-19T02:22:22;8.20;;;3.57;;
21901;SDS011;11115;46.038;14.612;2023-11-19T02:24:51;9.03;;;3.63;;
21901;SDS011;11115;46.038;14.612;2023-11-19T02:28:09;10.97;;;3.73;;
21901;SDS011;11115;46.038;14.612;2023-11-19T02:30:20;7.77;;;3.57;;
21901;SDS011;11115;46.038;14.612;2023-11-19T02:32:53;4.87;;;3.40;;
21901;SDS011;11115;46.038;14.612;2023-11-19T02:35:27;6.70;;;3.57;;
21901;SDS011;11115;46.038;14.612;2023-11-19T02:38:00;11.33;;;3.43;;
21901;SDS011;11115;46.038;14.612;2023-11-19T02:40:30;9.03;;;2.80;;
21901;SDS011;11115;46.038;14.612;2023-11-19T02:42:58;5.03;;;3.07;;
21901;SDS011;11115;46.038;14.612;2023-11-19T02:45:26;5.03;;;2.97;;
21901;SDS011;11115;46.038;14.612;2023-11-19T02:47:57;5.85;;;2.50;;
21901;SDS011;11115;46.038;14.612;2023-11-19T02:50:28;3.57;;;2.63;;
21901;SDS011;11115;46.038;14.612;2023-11-19T02:52:57;7.10;;;3.77;;
21901;SDS011;11115;46.038;14.612;2023-11-19T02:55:25;6.00;;;3.13;;
21901;SDS011;11115;46.038;14.612;2023-11-19T02:57:57;6.68;;;3.28;;
21901;SDS011;11115;46.038;14.612;2023-11-19T03:00:26;5.23;;;3.20;;
21901;SDS011;11115;46.038;14.612;2023-11-19T03:03:02;3.50;;;2.37;;
21901;SDS011;11115;46.038;14.612;2023-11-19T03:05:45;6.47;;;2.53;;
21901;SDS011;11115;46.038;14.612;2023-11-19T03:08:15;4.90;;;2.30;;
21901;SDS011;11115;46.038;14.612;2023-11-19T03:10:46;6.75;;;2.35;;
21901;SDS011;11115;46.038;14.612;2023-11-19T03:13:14;5.07;;;2.20;;
21901;SDS011;11115;46.038;14.612;2023-11-19T03:15:44;5.57;;;2.50;;
21901;SDS011;11115;46.038;14.612;2023-11-19T03:18:12;11.60;;;3.70;;
21901;SDS011;11115;46.038;14.612;2023-11-19T03:20:41;3.67;;;2.73;;
21901;SDS011;11115;46.038;14.612;2023-11-19T03:23:08;4.00;;;2.57;;
21901;SDS011;11115;46.038;14.612;2023-11-19T03:25:37;3.53;;;2.63;;
21901;SDS011;11115;46.038;14.612;2023-11-19T03:28:05;5.37;;;2.83;;
21901;SDS011;11115;46.038;14.612;2023-11-19T03:30:33;3.70;;;2.53;;
21901;SDS011;11115;46.038;14.612;2023-11-19T03:33:01;4.90;;;3.03;;
21901;SDS011;11115;46.038;14.612;2023-11-19T03:35:29;3.70;;;2.47;;
21901;SDS011;11115;46.038;14.612;2023-11-19T03:37:59;4.57;;;3.33;;
21901;SDS011;11115;46.038;14.612;2023-11-19T03:40:28;3.30;;;2.33;;
21901;SDS011;11115;46.038;14.612;2023-11-19T03:42:56;6.37;;;2.63;;
21901;SDS011;11115;46.038;14.612;2023-11-19T03:45:25;9.53;;;3.97;;
21901;SDS011;11115;46.038;14.612;2023-11-19T03:47:53;5.90;;;3.00;;
21901;SDS011;11115;46.038;14.612;2023-11-19T03:50:21;5.13;;;2.63;;
21901;SDS011;11115;46.038;14.612;2023-11-19T03:52:50;10.17;;;2.67;;
21901;SDS011;11115;46.038;14.612;2023-11-19T03:55:18;7.63;;;3.47;;
21901;SDS011;11115;46.038;14.612;2023-11-19T03:57:46;7.77;;;2.63;;
21901;SDS011;11115;46.038;14.612;2023-11-19T04:00:15;6.60;;;3.20;;
21901;SDS011;11115;46.038;14.612;2023-11-19T04:02:43;5.60;;;3.00;;
21901;SDS011;11115;46.038;14.612;2023-11-19T04:05:13;5.97;;;3.63;;
21901;SDS011;11115;46.038;14.612;2023-11-19T04:07:41;7.17;;;2.90;;
21901;SDS011;11115;46.038;14.612;2023-11-19T04:10:09;9.77;;;3.57;;
21901;SDS011;11115;46.038;14.612;2023-11-19T04:12:37;3.70;;;2.20;;
21901;SDS011;11115;46.038;14.612;2023-11-19T04:15:06;5.77;;;2.33;;
21901;SDS011;11115;46.038;14.612;2023-11-19T04:17:35;29.43;;;2.53;;
21901;SDS011;11115;46.038;14.612;2023-11-19T04:20:03;6.00;;;3.00;;
21901;SDS011;11115;46.038;14.612;2023-11-19T04:22:32;4.37;;;3.07;;
21901;SDS011;11115;46.038;14.612;2023-11-19T04:25:01;3.33;;;2.10;;
21901;SDS011;11115;46.038;14.612;2023-11-19T04:27:30;5.57;;;2.70;;
21901;SDS011;11115;46.038;14.612;2023-11-19T04:29:58;7.43;;;3.00;;
21901;SDS011;11115;46.038;14.612;2023-11-19T04:32:28;4.27;;;2.60;;
21901;SDS011;11115;46.038;14.612;2023-11-19T04:34:56;5.30;;;2.90;;
21901;SDS011;11115;46.038;14.612;2023-11-19T04:37:24;10.40;;;4.10;;
21901;SDS011;11115;46.038;14.612;2023-11-19T04:39:52;5.37;;;3.37;;
21901;SDS011;11115;46.038;14.612;2023-11-19T04:42:23;5.17;;;2.73;;
21901;SDS011;11115;46.038;14.612;2023-11-19T04:44:51;2.20;;;2.00;;
21901;SDS011;11115;46.038;14.612;2023-11-19T04:47:20;6.43;;;1.97;;
21901;SDS011;11115;46.038;14.612;2023-11-19T04:49:48;4.43;;;2.20;;
21901;SDS011;11115;46.038;14.612;2023-11-19T04:52:15;9.83;;;3.57;;
21901;SDS011;11115;46.038;14.612;2023-11-19T04:54:44;4.17;;;2.23;;
21901;SDS011;11115;46.038;14.612;2023-11-19T04:57:12;2.93;;;2.50;;
21901;SDS011;11115;46.038;14.612;2023-11-19T04:59:40;3.77;;;2.67;;
21901;SDS011;11115;46.038;14.612;2023-11-19T05:02:08;2.97;;;2.30;;
21901;SDS011;11115;46.038;14.612;2023-11-19T05:04:36;4.17;;;2.70;;
21901;SDS011;11115;46.038;14.612;2023-11-19T05:07:05;3.30;;;2.20;;
21901;SDS011;11115;46.038;14.612;2023-11-19T05:09:33;5.13;;;3.43;;
21901;SDS011;11115;46.038;14.612;2023-11-19T05:12:01;6.83;;;4.80;;
21901;SDS011;11115;46.038;14.612;2023-11-19T05:14:29;6.73;;;3.47;;
21901;SDS011;11115;46.038;14.612;2023-11-19T05:16:57;6.20;;;3.37;;
21901;SDS011;11115;46.038;14.612;2023-11-19T05:19:26;5.40;;;3.10;;
21901;SDS011;11115;46.038;14.612;2023-11-19T05:21:54;6.67;;;4.60;;
21901;SDS011;11115;46.038;14.612;2023-11-19T05:24:22;8.97;;;3.10;;
21901;SDS011;11115;46.038;14.612;2023-11-19T05:26:51;5.60;;;3.83;;
21901;SDS011;11115;46.038;14.612;2023-11-19T05:29:19;9.13;;;4.13;;
21901;SDS011;11115;46.038;14.612;2023-11-19T05:31:47;7.17;;;4.50;;
21901;SDS011;11115;46.038;14.612;2023-11-19T05:34:15;13.47;;;5.23;;
21901;SDS011;11115;46.038;14.612;2023-11-19T05:36:43;9.43;;;3.27;;
21901;SDS011;11115;46.038;14.612;2023-11-19T05:39:11;9.53;;;4.57;;
21901;SDS011;11115;46.038;14.612;2023-11-19T05:41:39;5.57;;;3.03;;
21901;SDS011;11115;46.038;14.612;2023-11-19T05:44:07;8.17;;;3.47;;
21901;SDS011;11115;46.038;14.612;2023-11-19T05:46:35;6.77;;;3.03;;
21901;SDS011;11115;46.038;14.612;2023-11-19T05:49:09;6.90;;;3.90;;
21901;SDS011;11115;46.038;14.612;2023-11-19T05:51:40;3.83;;;2.60;;
21901;SDS011;11115;46.038;14.612;2023-11-19T05:54:09;11.40;;;3.70;;
21901;SDS011;11115;46.038;14.612;2023-11-19T05:56:37;6.33;;;2.77;;
21901;SDS011;11115;46.038;14.612;2023-11-19T05:59:05;4.10;;;3.10;;
21901;SDS011;11115;46.038;14.612;2023-11-19T06:01:41;9.17;;;4.87;;
21901;SDS011;11115;46.038;14.612;2023-11-19T06:04:09;8.10;;;3.90;;
21901;SDS011;11115;46.038;14.612;2023-11-19T06:06:38;4.83;;;3.40;;
21901;SDS011;11115;46.038;14.612;2023-11-19T06:09:07;11.27;;;3.23;;
21901;SDS011;11115;46.038;14.612;2023-11-19T06:11:40;4.40;;;2.97;;
21901;SDS011;11115;46.038;14.612;2023-11-19T06:14:08;6.30;;;3.27;;
21901;SDS011;11115;46.038;14.612;2023-11-19T06:16:36;6.23;;;3.83;;
21901;SDS011;11115;46.038;14.612;2023-11-19T06:19:06;7.67;;;3.50;;
21901;SDS011;11115;46.038;14.612;2023-11-19T06:21:36;4.97;;;3.53;;
21901;SDS011;11115;46.038;14.612;2023-11-19T06:24:04;17.60;;;3.77;;
21901;SDS011;11115;46.038;14.612;2023-11-19T06:26:32;10.27;;;4.67;;
21901;SDS011;11115;46.038;14.612;2023-11-19T06:29:00;16.53;;;4.63;;
21901;SDS011;11115;46.038;14.612;2023-11-19T06:31:28;5.27;;;3.23;;
21901;SDS011;11115;46.038;14.612;2023-11-19T06:33:56;7.10;;;4.43;;
21901;SDS011;11115;46.038;14.612;2023-11-19T06:36:24;8.43;;;3.93;;
21901;SDS011;11115;46.038;14.612;2023-11-19T06:38:53;8.53;;;5.17;;
21901;SDS011;11115;46.038;14.612;2023-11-19T06:41:22;5.93;;;4.27;;
21901;SDS011;11115;46.038;14.612;2023-11-19T06:43:49;9.10;;;5.27;;
21901;SDS011;11115;46.038;14.612;2023-11-19T06:46:18;6.20;;;4.47;;
21901;SDS011;11115;46.038;14.612;2023-11-19T06:48:47;7.07;;;5.33;;
21901;SDS011;11115;46.038;14.612;2023-11-19T06:51:15;8.83;;;5.07;;
21901;SDS011;11115;46.038;14.612;2023-11-19T06:53:43;11.37;;;6.40;;
21901;SDS011;11115;46.038;14.612;2023-11-19T06:56:21;9.90;;;6.53;;
21901;SDS011;11115;46.038;14.612;2023-11-19T06:58:51;11.67;;;8.13;;
21901;SDS011;11115;46.038;14.612;2023-11-19T07:01:19;9.80;;;5.70;;
21901;SDS011;11115;46.038;14.612;2023-11-19T07:03:47;10.07;;;5.67;;
21901;SDS011;11115;46.038;14.612;2023-11-19T07:06:16;11.47;;;6.43;;
21901;SDS011;11115;46.038;14.612;2023-11-19T07:08:44;5.70;;;3.50;;
21901;SDS011;11115;46.038;14.612;2023-11-19T07:11:13;8.40;;;4.03;;
21901;SDS011;11115;46.038;14.612;2023-11-19T07:13:43;10.63;;;5.90;;
21901;SDS011;11115;46.038;14.612;2023-11-19T07:16:14;7.47;;;4.13;;
21901;SDS011;11115;46.038;14.612;2023-11-19T07:18:42;10.03;;;5.43;;
21901;SDS011;11115;46.038;14.612;2023-11-19T07:21:11;10.13;;;4.20;;
21901;SDS011;11115;46.038;14.612;2023-11-19T07:23:39;8.27;;;4.20;;
21901;SDS011;11115;46.038;14.612;2023-11-19T07:26:08;6.67;;;3.37;;
21901;SDS011;11115;46.038;14.612;2023-11-19T07:28:36;9.83;;;4.70;;
21901;SDS011;11115;46.038;14.612;2023-11-19T07:31:06;10.70;;;5.50;;
21901;SDS011;11115;46.038;14.612;2023-11-19T07:33:35;11.33;;;5.77;;
21901;SDS011;11115;46.038;14.612;2023-11-19T07:36:03;8.30;;;5.17;;
21901;SDS011;11115;46.038;14.612;2023-11-19T07:38:32;9.57;;;4.97;;
21901;SDS011;11115;46.038;14.612;2023-11-19T07:41:00;8.17;;;4.87;;
21901;SDS011;11115;46.038;14.612;2023-11-19T07:43:28;8.37;;;4.80;;
21901;SDS011;11115;46.038;14.612;2023-11-19T07:45:55;14.67;;;6.47;;
21901;SDS011;11115;46.038;14.612;2023-11-19T07:48:25;9.33;;;5.73;;
21901;SDS011;11115;46.038;14.612;2023-11-19T07:50:53;9.17;;;4.33;;
21901;SDS011;11115;46.038;14.612;2023-11-19T07:53:21;11.47;;;4.87;;
21901;SDS011;11115;46.038;14.612;2023-11-19T07:55:49;11.10;;;6.30;;
21901;SDS011;11115;46.038;14.612;2023-11-19T07:58:17;9.50;;;5.57;;
21901;SDS011;11115;46.038;14.612;2023-11-19T08:00:45;13.57;;;5.40;;
21901;SDS011;11115;46.038;14.612;2023-11-19T08:03:13;12.17;;;5.93;;
21901;SDS011;11115;46.038;14.612;2023-11-19T08:05:41;10.83;;;6.70;;
21901;SDS011;11115;46.038;14.612;2023-11-19T08:08:09;14.27;;;6.30;;
21901;SDS011;11115;46.038;14.612;2023-11-19T08:10:37;12.37;;;6.50;;
21901;SDS011;11115;46.038;14.612;2023-11-19T08:13:06;11.50;;;4.77;;
21901;SDS011;11115;46.038;14.612;2023-11-19T08:15:34;6.87;;;5.20;;
21901;SDS011;11115;46.038;14.612;2023-11-19T08:18:02;8.33;;;4.30;;
21901;SDS011;11115;46.038;14.612;2023-11-19T08:20:32;7.90;;;4.70;;
21901;SDS011;11115;46.038;14.612;2023-11-19T08:23:02;9.07;;;4.03;;
21901;SDS011;11115;46.038;14.612;2023-11-19T08:25:31;13.07;;;5.40;;
21901;SDS011;11115;46.038;14.612;2023-11-19T08:28:00;9.43;;;5.80;;
21901;SDS011;11115;46.038;14.612;2023-11-19T08:30:30;9.60;;;5.47;;
21901;SDS011;11115;46.038;14.612;2023-11-19T08:32:58;10.73;;;5.70;;
21901;SDS011;11115;46.038;14.612;2023-11-19T08:35:29;7.90;;;4.45;;
21901;SDS011;11115;46.038;14.612;2023-11-19T08:37:57;11.90;;;6.83;;
21901;SDS011;11115;46.038;14.612;2023-11-19T08:40:27;8.33;;;4.90;;
21901;SDS011;11115;46.038;14.612;2023-11-19T08:42:56;7.83;;;4.07;;
21901;SDS011;11115;46.038;14.612;2023-11-19T08:45:24;54.63;;;4.93;;
21901;SDS011;11115;46.038;14.612;2023-11-19T08:47:52;9.43;;;5.47;;
21901;SDS011;11115;46.038;14.612;2023-11-19T08:50:20;9.20;;;5.83;;
21901;SDS011;11115;46.038;14.612;2023-11-19T08:52:49;15.47;;;5.77;;
21901;SDS011;11115;46.038;14.612;2023-11-19T08:55:17;11.20;;;6.27;;
21901;SDS011;11115;46.038;14.612;2023-11-19T08:57:45;15.27;;;6.17;;
21901;SDS011;11115;46.038;14.612;2023-11-19T09:00:13;15.93;;;7.27;;
21901;SDS011;11115;46.038;14.612;2023-11-19T09:02:41;11.97;;;7.40;;
21901;SDS011;11115;46.038;14.612;2023-11-19T09:05:11;6.87;;;4.47;;
21901;SDS011;11115;46.038;14.612;2023-11-19T09:07:39;12.07;;;6.17;;
21901;SDS011;11115;46.038;14.612;2023-11-19T09:10:07;12.27;;;4.67;;
21901;SDS011;11115;46.038;14.612;2023-11-19T09:12:36;12.97;;;4.73;;
21901;SDS011;11115;46.038;14.612;2023-11-19T09:15:05;11.47;;;6.27;;
21901;SDS011;11115;46.038;14.612;2023-11-19T09:17:33;11.03;;;4.23;;
21901;SDS011;11115;46.038;14.612;2023-11-19T09:20:02;9.50;;;4.60;;
21901;SDS011;11115;46.038;14.612;2023-11-19T09:22:30;12.10;;;5.70;;
21901;SDS011;11115;46.038;14.612;2023-11-19T09:24:57;6.20;;;4.03;;
21901;SDS011;11115;46.038;14.612;2023-11-19T09:27:27;12.00;;;5.97;;
21901;SDS011;11115;46.038;14.612;2023-11-19T09:29:55;9.00;;;4.47;;
21901;SDS011;11115;46.038;14.612;2023-11-19T09:32:25;14.07;;;6.13;;
21901;SDS011;11115;46.038;14.612;2023-11-19T09:34:53;10.23;;;4.57;;
21901;SDS011;11115;46.038;14.612;2023-11-19T09:37:21;8.03;;;4.87;;
21901;SDS011;11115;46.038;14.612;2023-11-19T09:39:49;18.77;;;4.53;;
21901;SDS011;11115;46.038;14.612;2023-11-19T09:42:17;11.37;;;5.57;;
21901;SDS011;11115;46.038;14.612;2023-11-19T09:44:45;8.60;;;5.10;;
21901;SDS011;11115;46.038;14.612;2023-11-19T09:47:15;10.93;;;5.67;;
21901;SDS011;11115;46.038;14.612;2023-11-19T09:49:45;13.13;;;5.93;;
21901;SDS011;11115;46.038;14.612;2023-11-19T09:52:14;9.87;;;5.27;;
21901;SDS011;11115;46.038;14.612;2023-11-19T09:54:42;8.67;;;4.87;;
21901;SDS011;11115;46.038;14.612;2023-11-19T09:57:10;8.47;;;5.30;;
21901;SDS011;11115;46.038;14.612;2023-11-19T10:02:10;7.17;;;4.50;;
21901;SDS011;11115;46.038;14.612;2023-11-19T10:04:39;7.50;;;4.37;;
21901;SDS011;11115;46.038;14.612;2023-11-19T10:07:10;7.43;;;4.47;;
21901;SDS011;11115;46.038;14.612;2023-11-19T10:09:38;11.60;;;4.73;;
21901;SDS011;11115;46.038;14.612;2023-11-19T10:12:06;6.50;;;3.97;;
21901;SDS011;11115;46.038;14.612;2023-11-19T10:14:34;6.37;;;4.57;;
21901;SDS011;11115;46.038;14.612;2023-11-19T10:17:07;11.55;;;4.88;;
21901;SDS011;11115;46.038;14.612;2023-11-19T10:19:35;7.80;;;4.43;;
21901;SDS011;11115;46.038;14.612;2023-11-19T10:22:05;7.90;;;3.87;;
21901;SDS011;11115;46.038;14.612;2023-11-19T10:24:33;9.70;;;5.93;;
21901;SDS011;11115;46.038;14.612;2023-11-19T10:27:09;11.07;;;4.50;;
21901;SDS011;11115;46.038;14.612;2023-11-19T10:29:37;9.10;;;4.57;;
21901;SDS011;11115;46.038;14.612;2023-11-19T10:32:05;13.10;;;5.50;;
21901;SDS011;11115;46.038;14.612;2023-11-19T10:34:52;6.97;;;4.50;;
21901;SDS011;11115;46.038;14.612;2023-11-19T10:37:32;11.10;;;4.67;;
21901;SDS011;11115;46.038;14.612;2023-11-19T10:40:02;11.07;;;4.43;;
21901;SDS011;11115;46.038;14.612;2023-11-19T10:42:32;16.97;;;7.07;;
21901;SDS011;11115;46.038;14.612;2023-11-19T10:45:00;8.33;;;5.17;;
21901;SDS011;11115;46.038;14.612;2023-11-19T10:47:28;8.73;;;4.03;;
21901;SDS011;11115;46.038;14.612;2023-11-19T10:50:01;6.20;;;4.70;;
21901;SDS011;11115;46.038;14.612;2023-11-19T10:52:29;10.10;;;4.93;;
21901;SDS011;11115;46.038;14.612;2023-11-19T10:54:57;13.30;;;4.53;;
21901;SDS011;11115;46.038;14.612;2023-11-19T10:57:28;11.90;;;5.50;;
21901;SDS011;11115;46.038;14.612;2023-11-19T11:00:00;14.00;;;7.38;;
21901;SDS011;11115;46.038;14.612;2023-11-19T11:02:31;11.32;;;5.30;;
21901;SDS011;11115;46.038;14.612;2023-11-19T11:05:05;10.20;;;6.07;;
21901;SDS011;11115;46.038;14.612;2023-11-19T11:07:34;7.90;;;5.10;;
21901;SDS011;11115;46.038;14.612;2023-11-19T11:10:08;16.60;;;7.00;;
21901;SDS011;11115;46.038;14.612;2023-11-19T11:12:38;8.55;;;5.28;;
21901;SDS011;11115;46.038;14.612;2023-11-19T11:15:10;6.97;;;5.27;;
21901;SDS011;11115;46.038;14.612;2023-11-19T11:17:39;7.80;;;4.70;;
21901;SDS011;11115;46.038;14.612;2023-11-19T11:20:10;10.40;;;5.30;;
21901;SDS011;11115;46.038;14.612;2023-11-19T11:22:44;9.07;;;6.20;;
21901;SDS011;11115;46.038;14.612;2023-11-19T11:25:40;14.30;;;7.67;;
21901;SDS011;11115;46.038;14.612;2023-11-19T11:40:05;9.73;;;4.93;;
21901;SDS011;11115;46.038;14.612;2023-11-19T11:42:37;9.57;;;5.57;;
21901;SDS011;11115;46.038;14.612;2023-11-19T11:45:09;11.23;;;5.53;;
21901;SDS011;11115;46.038;14.612;2023-11-19T11:50:16;8.43;;;5.73;;
21901;SDS011;11115;46.038;14.612;2023-11-19T11:55:33;11.03;;;6.77;;
21901;SDS011;11115;46.038;14.612;2023-11-19T11:58:03;15.27;;;4.93;;
21901;SDS011;11115;46.038;14.612;2023-11-19T12:03:00;8.97;;;5.50;;
21901;SDS011;11115;46.038;14.612;2023-11-19T12:05:29;9.77;;;7.07;;
21901;SDS011;11115;46.038;14.612;2023-11-19T12:08:02;15.73;;;6.13;;
21901;SDS011;11115;46.038;14.612;2023-11-19T12:10:37;12.57;;;7.03;;
21901;SDS011;11115;46.038;14.612;2023-11-19T12:13:14;13.70;;;5.37;;
21901;SDS011;11115;46.038;14.612;2023-11-19T12:16:31;11.23;;;7.00;;
21901;SDS011;11115;46.038;14.612;2023-11-19T12:18:34;7.80;;;5.27;;
21901;SDS011;11115;46.038;14.612;2023-11-19T12:21:02;13.20;;;5.57;;
21901;SDS011;11115;46.038;14.612;2023-11-19T12:23:32;6.73;;;4.23;;
21901;SDS011;11115;46.038;14.612;2023-11-19T12:26:00;7.43;;;3.67;;
21901;SDS011;11115;46.038;14.612;2023-11-19T12:28:30;9.03;;;5.70;;
21901;SDS011;11115;46.038;14.612;2023-11-19T12:31:08;12.03;;;5.80;;
21901;SDS011;11115;46.038;14.612;2023-11-19T12:33:37;11.70;;;5.10;;
21901;SDS011;11115;46.038;14.612;2023-11-19T12:36:05;7.97;;;4.73;;
21901;SDS011;11115;46.038;14.612;2023-11-19T12:38:34;9.07;;;5.43;;
21901;SDS011;11115;46.038;14.612;2023-11-19T12:41:07;10.07;;;5.33;;
21901;SDS011;11115;46.038;14.612;2023-11-19T12:43:39;12.67;;;6.60;;
21901;SDS011;11115;46.038;14.612;2023-11-19T12:46:19;7.68;;;5.28;;
21901;SDS011;11115;46.038;14.612;2023-11-19T12:48:51;25.17;;;5.22;;
21901;SDS011;11115;46.038;14.612;2023-11-19T12:51:20;9.70;;;6.13;;
21901;SDS011;11115;46.038;14.612;2023-11-19T12:53:48;8.57;;;5.10;;
21901;SDS011;11115;46.038;14.612;2023-11-19T12:56:17;7.37;;;4.50;;
21901;SDS011;11115;46.038;14.612;2023-11-19T12:58:45;17.27;;;10.97;;
21901;SDS011;11115;46.038;14.612;2023-11-19T13:01:20;37.20;;;12.33;;
21901;SDS011;11115;46.038;14.612;2023-11-19T13:03:48;21.57;;;10.47;;
21901;SDS011;11115;46.038;14.612;2023-11-19T13:06:18;18.57;;;8.77;;
21901;SDS011;11115;46.038;14.612;2023-11-19T13:08:48;12.50;;;6.63;;
21901;SDS011;11115;46.038;14.612;2023-11-19T13:11:33;9.43;;;6.13;;
21901;SDS011;11115;46.038;14.612;2023-11-19T13:14:04;11.70;;;6.17;;
21901;SDS011;11115;46.038;14.612;2023-11-19T13:16:36;8.95;;;4.57;;
21901;SDS011;11115;46.038;14.612;2023-11-19T13:19:05;11.67;;;6.40;;
21901;SDS011;11115;46.038;14.612;2023-11-19T13:21:35;10.67;;;6.77;;
21901;SDS011;11115;46.038;14.612;2023-11-19T13:24:03;9.60;;;6.07;;
21901;SDS011;11115;46.038;14.612;2023-11-19T13:26:32;12.07;;;6.40;;
21901;SDS011;11115;46.038;14.612;2023-11-19T13:29:01;41.50;;;6.70;;
21901;SDS011;11115;46.038;14.612;2023-11-19T13:31:29;9.83;;;6.27;;
21901;SDS011;11115;46.038;14.612;2023-11-19T13:33:57;10.80;;;5.23;;
21901;SDS011;11115;46.038;14.612;2023-11-19T13:36:25;8.30;;;4.57;;
21901;SDS011;11115;46.038;14.612;2023-11-19T13:38:54;12.37;;;5.57;;
21901;SDS011;11115;46.038;14.612;2023-11-19T13:41:26;5.07;;;3.60;;
21901;SDS011;11115;46.038;14.612;2023-11-19T13:43:56;5.37;;;3.50;;
21901;SDS011;11115;46.038;14.612;2023-11-19T13:46:25;10.20;;;5.23;;
21901;SDS011;11115;46.038;14.612;2023-11-19T13:48:53;8.07;;;4.20;;
21901;SDS011;11115;46.038;14.612;2023-11-19T13:51:21;5.03;;;3.37;;
21901;SDS011;11115;46.038;14.612;2023-11-19T13:53:49;6.87;;;3.60;;
21901;SDS011;11115;46.038;14.612;2023-11-19T13:56:22;6.53;;;3.77;;
21901;SDS011;11115;46.038;14.612;2023-11-19T13:58:50;9.00;;;4.63;;
21901;SDS011;11115;46.038;14.612;2023-11-19T14:01:19;5.63;;;3.10;;
21901;SDS011;11115;46.038;14.612;2023-11-19T14:03:50;4.55;;;3.40;;
21901;SDS011;11115;46.038;14.612;2023-11-19T14:06:19;7.13;;;2.50;;
21901;SDS011;11115;46.038;14.612;2023-11-19T14:08:47;4.53;;;2.60;;
21901;SDS011;11115;46.038;14.612;2023-11-19T14:11:15;2.63;;;2.43;;
21901;SDS011;11115;46.038;14.612;2023-11-19T14:13:43;9.33;;;4.43;;
21901;SDS011;11115;46.038;14.612;2023-11-19T14:16:13;25.33;;;13.83;;
21901;SDS011;11115;46.038;14.612;2023-11-19T14:18:42;16.53;;;9.03;;
21901;SDS011;11115;46.038;14.612;2023-11-19T14:21:10;8.60;;;5.10;;
21901;SDS011;11115;46.038;14.612;2023-11-19T14:23:38;6.60;;;4.40;;
21901;SDS011;11115;46.038;14.612;2023-11-19T14:26:06;12.53;;;4.00;;
21901;SDS011;11115;46.038;14.612;2023-11-19T14:28:34;8.90;;;3.07;;
21901;SDS011;11115;46.038;14.612;2023-11-19T14:31:20;8.60;;;3.60;;
21901;SDS011;11115;46.038;14.612;2023-11-19T14:33:48;4.07;;;2.20;;
21901;SDS011;11115;46.038;14.612;2023-11-19T14:36:16;17.80;;;5.03;;
21901;SDS011;11115;46.038;14.612;2023-11-19T14:38:44;5.20;;;2.10;;
21901;SDS011;11115;46.038;14.612;2023-11-19T14:41:13;10.70;;;2.40;;
21901;SDS011;11115;46.038;14.612;2023-11-19T14:43:41;5.90;;;2.73;;
21901;SDS011;11115;46.038;14.612;2023-11-19T14:46:09;4.87;;;3.20;;
21901;SDS011;11115;46.038;14.612;2023-11-19T14:48:37;3.70;;;2.30;;
21901;SDS011;11115;46.038;14.612;2023-11-19T14:51:05;6.93;;;3.47;;
21901;SDS011;11115;46.038;14.612;2023-11-19T14:53:34;6.63;;;2.93;;
21901;SDS011;11115;46.038;14.612;2023-11-19T14:56:02;39.50;;;21.20;;
21901;SDS011;11115;46.038;14.612;2023-11-19T14:58:31;29.20;;;15.60;;
21901;SDS011;11115;46.038;14.612;2023-11-19T15:00:59;26.00;;;12.03;;
21901;SDS011;11115;46.038;14.612;2023-11-19T15:03:31;16.48;;;8.05;;
21901;SDS011;11115;46.038;14.612;2023-11-19T15:06:22;17.17;;;7.67;;